Terminal Aerodrome Forecast
Issued by NWS

Home | Current Version | Previous Version | Text Only | Print | Product List | Glossary On
Versions: 1 2 3 4 5 6 7 8 9 10 11 12 13 14 15
000
FTUS45 KABQ 271139
TAFGUP
TAF
KGUP 271139Z 2712/2812 23020G30KT P6SM VCSH BKN060
     FM271600 25022G32KT P6SM BKN070
     FM272000 27027G37KT P6SM SCT100
     FM280200 29014KT P6SM SCT100
     FM280500 24007KT P6SM BKN100=

USA.gov is the U.S. government's official web portal to all federal, state and local government web resources and services.